createdAt,value
2022-12-27T00:00:31.397Z,-6.7
2022-12-27T00:01:31.684Z,-6.71
2022-12-27T00:02:31.445Z,-6.69
2022-12-27T00:03:31.436Z,-6.67
2022-12-27T00:04:31.440Z,-6.71
2022-12-27T00:05:31.407Z,-6.66
2022-12-27T00:06:31.454Z,-6.69
2022-12-27T00:07:31.456Z,-6.68
2022-12-27T00:08:31.511Z,-6.7
2022-12-27T00:09:31.539Z,-6.67
2022-12-27T00:10:31.540Z,-6.66
2022-12-27T00:11:31.613Z,-6.69
2022-12-27T00:12:31.535Z,-6.67
2022-12-27T00:13:31.613Z,-6.63
2022-12-27T00:14:31.560Z,-6.62
2022-12-27T00:15:32.840Z,-6.59
2022-12-27T00:16:32.071Z,-6.61
2022-12-27T00:17:31.605Z,-6.62
2022-12-27T00:18:31.758Z,-6.59
2022-12-27T00:19:31.630Z,-6.6
2022-12-27T00:20:31.650Z,-6.6
2022-12-27T00:21:31.698Z,-6.59
2022-12-27T00:22:31.697Z,-6.58
2022-12-27T00:23:33.895Z,-6.59
2022-12-27T00:24:31.705Z,-6.55
2022-12-27T00:25:31.743Z,-6.56
2022-12-27T00:26:32.908Z,-6.56
2022-12-27T00:27:31.811Z,-6.55
2022-12-27T00:28:32.556Z,-6.55
2022-12-27T00:29:31.900Z,-6.54
2022-12-27T00:30:31.809Z,-6.53
2022-12-27T00:31:32.512Z,-6.54
2022-12-27T00:32:31.876Z,-6.5
2022-12-27T00:33:32.859Z,-6.54
2022-12-27T00:34:32.012Z,-6.54
2022-12-27T00:35:31.906Z,-6.51
2022-12-27T00:36:32.062Z,-6.53
2022-12-27T00:37:31.963Z,-6.52
2022-12-27T00:38:32.225Z,-6.52
2022-12-27T00:39:31.998Z,-6.5
2022-12-27T00:40:32.119Z,-6.49
2022-12-27T00:41:32.011Z,-6.47
2022-12-27T00:42:32.026Z,-6.46
2022-12-27T00:43:32.514Z,-6.46
2022-12-27T00:44:32.066Z,-6.43
2022-12-27T00:45:32.133Z,-6.46
2022-12-27T00:46:32.090Z,-6.44
2022-12-27T00:47:32.092Z,-6.43
2022-12-27T00:48:32.122Z,-6.44
2022-12-27T00:49:32.100Z,-6.47
2022-12-27T00:50:32.150Z,-6.45
2022-12-27T00:51:32.164Z,-6.43
2022-12-27T00:52:32.171Z,-6.41
2022-12-27T00:53:33.000Z,-6.43
2022-12-27T00:54:32.225Z,-6.42
2022-12-27T00:55:32.921Z,-6.41
2022-12-27T00:56:32.200Z,-6.41
2022-12-27T00:57:32.249Z,-6.43
2022-12-27T00:58:32.261Z,-6.39
2022-12-27T00:59:32.403Z,-6.41
2022-12-27T01:00:32.342Z,-6.41
2022-12-27T01:01:34.122Z,-6.36
2022-12-27T01:02:32.338Z,-6.37
2022-12-27T01:03:32.385Z,-6.37
2022-12-27T01:04:32.374Z,-6.34
2022-12-27T01:05:32.386Z,-6.35
2022-12-27T01:06:33.427Z,-6.33
2022-12-27T01:07:32.561Z,-6.35
2022-12-27T01:08:32.432Z,-6.35
2022-12-27T01:09:32.447Z,-6.35
2022-12-27T01:10:33.141Z,-6.35
2022-12-27T01:11:32.485Z,-6.29
2022-12-27T01:12:34.167Z,-6.32
2022-12-27T01:13:33.000Z,-6.3
2022-12-27T01:14:32.501Z,-6.31
2022-12-27T01:15:32.567Z,-6.32
2022-12-27T01:16:33.074Z,-6.33
2022-12-27T01:17:32.667Z,-6.33
2022-12-27T01:18:33.313Z,-6.31
2022-12-27T01:19:34.698Z,-6.3
2022-12-27T01:20:33.268Z,-6.29
2022-12-27T01:21:32.642Z,-6.31
2022-12-27T01:22:33.016Z,-6.28
2022-12-27T01:23:32.675Z,-6.31
2022-12-27T01:24:33.597Z,-6.31
2022-12-27T01:25:32.701Z,-6.32
2022-12-27T01:26:32.712Z,-6.32
2022-12-27T01:27:32.734Z,-6.29
2022-12-27T01:28:32.858Z,-6.31
2022-12-27T01:29:32.756Z,-6.32
2022-12-27T01:30:32.804Z,-6.27
2022-12-27T01:31:32.898Z,-6.27
2022-12-27T01:32:35.531Z,-6.26
2022-12-27T01:33:32.879Z,-6.27
2022-12-27T01:34:33.002Z,-6.26
2022-12-27T01:35:32.878Z,-6.22
2022-12-27T01:36:33.029Z,-6.23
2022-12-27T01:37:32.902Z,-6.2
2022-12-27T01:38:32.893Z,-6.19
2022-12-27T01:39:32.909Z,-6.17
2022-12-27T01:40:35.053Z,-6.18
2022-12-27T01:41:34.103Z,-6.16
2022-12-27T01:42:33.111Z,-6.15
2022-12-27T01:43:38.698Z,-6.16
2022-12-27T01:45:36.732Z,-6.16
2022-12-27T01:46:36.130Z,-6.13
2022-12-27T01:48:37.262Z,-6.14
2022-12-27T01:49:37.853Z,-6.12
2022-12-27T01:50:40.026Z,-6.14
2022-12-27T01:51:37.292Z,-6.13
2022-12-27T01:53:41.250Z,-6.12
2022-12-27T01:54:39.557Z,-6.11
2022-12-27T01:56:40.177Z,-6.09
2022-12-27T01:57:40.823Z,-6.1
2022-12-27T01:59:43.923Z,-6.09
2022-12-27T02:00:44.796Z,-6.07
2022-12-27T02:01:46.569Z,-6.08
2022-12-27T02:02:44.033Z,-6.08
2022-12-27T02:03:46.892Z,-6.05
2022-12-27T02:04:44.768Z,-6.03
2022-12-27T02:05:43.980Z,-6.01
2022-12-27T02:06:44.555Z,-6.01
2022-12-27T02:09:54.859Z,-6.01
2022-12-27T02:10:51.307Z,-6.02
2022-12-27T02:11:54.954Z,-5.98
2022-12-27T02:12:51.335Z,-5.97
2022-12-27T02:13:51.285Z,-5.97
2022-12-27T02:14:51.375Z,-5.99
2022-12-27T02:15:51.247Z,-5.98
2022-12-27T02:16:51.960Z,-5.94
2022-12-27T02:17:51.284Z,-5.96
2022-12-27T02:18:51.409Z,-5.96
2022-12-27T02:25:15.818Z,-5.89
2022-12-27T02:30:21.875Z,-5.82
2022-12-27T02:31:26.073Z,-5.82
2022-12-27T02:32:30.537Z,-5.83
2022-12-27T02:33:28.050Z,-5.81
2022-12-27T02:34:34.762Z,-5.79
2022-12-27T02:35:37.998Z,-5.8
2022-12-27T02:36:35.515Z,-5.8
2022-12-27T02:37:37.174Z,-5.81
2022-12-27T02:38:36.813Z,-5.8
2022-12-27T02:39:35.906Z,-5.81
2022-12-27T02:40:35.286Z,-5.78
2022-12-27T02:41:35.075Z,-5.8
2022-12-27T02:42:34.326Z,-5.77
2022-12-27T02:43:34.327Z,-5.77
2022-12-27T02:44:34.383Z,-5.73
2022-12-27T02:45:38.567Z,-5.73
2022-12-27T02:46:35.059Z,-5.74
2022-12-27T02:47:34.991Z,-5.71
2022-12-27T02:48:34.803Z,-5.73
2022-12-27T02:49:37.274Z,-5.73
2022-12-27T03:00:05.303Z,-5.7
2022-12-27T03:01:07.904Z,-5.69
2022-12-27T03:03:06.411Z,-5.65
2022-12-27T03:08:28.940Z,-5.59
2022-12-27T03:11:31.486Z,-5.59
2022-12-27T03:13:36.593Z,-5.56
2022-12-27T03:14:38.068Z,-5.57
2022-12-27T03:16:43.389Z,-5.55
2022-12-27T03:17:43.709Z,-5.57
2022-12-27T03:20:45.386Z,-5.54
2022-12-27T03:21:45.966Z,-5.55
2022-12-27T03:22:46.196Z,-5.58
2022-12-27T03:23:45.864Z,-5.56
2022-12-27T03:24:44.120Z,-5.58
2022-12-27T03:25:44.744Z,-5.57
2022-12-27T03:26:46.898Z,-5.54
2022-12-27T03:27:46.491Z,-5.54
2022-12-27T03:28:45.806Z,-5.53
2022-12-27T03:30:52.745Z,-5.54
2022-12-27T03:31:51.282Z,-5.53
2022-12-27T03:32:51.892Z,-5.5
2022-12-27T03:33:50.787Z,-5.52
2022-12-27T03:36:56.334Z,-5.49
2022-12-27T03:37:58.274Z,-5.48
2022-12-27T03:39:05.679Z,-5.48
2022-12-27T03:40:04.080Z,-5.47
2022-12-27T03:41:01.075Z,-5.45
2022-12-27T03:42:03.317Z,-5.44
2022-12-27T03:44:02.644Z,-5.47
2022-12-27T03:45:02.740Z,-5.43
2022-12-27T03:46:08.635Z,-5.44
2022-12-27T03:48:09.799Z,-5.4
2022-12-27T03:51:17.581Z,-5.36
2022-12-27T03:54:22.812Z,-5.33
2022-12-27T03:55:19.261Z,-5.32
2022-12-27T03:56:19.364Z,-5.32
2022-12-27T03:57:23.929Z,-5.33
2022-12-27T03:58:20.315Z,-5.37
2022-12-27T03:59:20.200Z,-5.3
2022-12-27T04:00:20.221Z,-5.25
2022-12-27T04:01:20.372Z,-5.23
2022-12-27T04:02:20.678Z,-5.26
2022-12-27T04:03:20.333Z,-5.28
2022-12-27T04:04:20.305Z,-5.29
2022-12-27T04:05:20.306Z,-5.33
2022-12-27T04:06:20.453Z,-5.34
2022-12-27T04:07:20.328Z,-5.35
2022-12-27T04:08:20.329Z,-5.36
2022-12-27T04:09:20.329Z,-5.33
2022-12-27T04:10:20.368Z,-5.29
2022-12-27T04:11:20.399Z,-5.27
2022-12-27T04:12:20.434Z,-5.3
2022-12-27T04:13:20.412Z,-5.31
2022-12-27T04:14:20.439Z,-5.29
2022-12-27T04:15:20.464Z,-5.29
2022-12-27T04:16:20.576Z,-5.25
2022-12-27T04:17:20.474Z,-5.25
2022-12-27T04:18:20.469Z,-5.2
2022-12-27T04:19:20.470Z,-5.08
2022-12-27T04:20:20.508Z,-5.08
2022-12-27T04:21:20.519Z,-5.08
2022-12-27T04:22:20.576Z,-5.05
2022-12-27T04:23:20.608Z,-5.06
2022-12-27T04:24:20.574Z,-5.04
2022-12-27T04:25:20.629Z,-5.01
2022-12-27T04:26:20.606Z,-5.02
2022-12-27T04:27:20.656Z,-5.04
2022-12-27T04:28:20.656Z,-5.07
2022-12-27T04:29:20.681Z,-5.06
2022-12-27T04:30:20.698Z,-5.08
2022-12-27T04:31:21.034Z,-5.02
2022-12-27T04:32:20.775Z,-5.07
2022-12-27T04:33:20.754Z,-5.04
2022-12-27T04:34:20.779Z,-4.98
2022-12-27T04:35:20.775Z,-4.9
2022-12-27T04:36:20.835Z,-4.92
2022-12-27T04:37:20.822Z,-4.97
2022-12-27T04:38:20.897Z,-4.9
2022-12-27T04:39:20.843Z,-5
2022-12-27T04:40:21.288Z,-4.99
2022-12-27T04:41:21.293Z,-4.95
2022-12-27T04:42:21.318Z,-4.98
2022-12-27T04:43:21.496Z,-5.02
2022-12-27T04:44:21.339Z,-5.01
2022-12-27T04:45:21.588Z,-5.03
2022-12-27T04:46:23.317Z,-5.04
2022-12-27T04:47:22.063Z,-5.03
2022-12-27T04:48:21.455Z,-5.02
2022-12-27T04:49:22.711Z,-5.06
2022-12-27T04:51:24.702Z,-5.05
2022-12-27T04:52:24.731Z,-5.03
2022-12-27T04:53:24.778Z,-5.05
2022-12-27T04:54:24.741Z,-5.05
2022-12-27T04:55:25.873Z,-5
2022-12-27T04:56:24.813Z,-5.03
2022-12-27T04:57:26.078Z,-5.01
2022-12-27T04:58:25.256Z,-4.99
2022-12-27T04:59:24.834Z,-5.02
2022-12-27T05:00:29.674Z,-5.03
2022-12-27T05:01:26.132Z,-5.02
2022-12-27T05:02:26.093Z,-5.04
2022-12-27T05:03:26.057Z,-5.03
2022-12-27T05:04:26.106Z,-4.98
2022-12-27T05:05:26.215Z,-5.01
2022-12-27T05:06:25.957Z,-5.02
2022-12-27T05:07:25.992Z,-4.97
2022-12-27T05:08:26.342Z,-4.98
2022-12-27T05:09:26.027Z,-4.96
2022-12-27T05:10:26.393Z,-4.95
2022-12-27T05:11:26.417Z,-4.92
2022-12-27T05:12:26.068Z,-4.93
2022-12-27T05:13:26.093Z,-4.9
2022-12-27T05:14:26.169Z,-4.87
2022-12-27T05:15:26.290Z,-4.9
2022-12-27T05:17:26.692Z,-4.88
2022-12-27T05:18:27.016Z,-4.87
2022-12-27T05:19:26.744Z,-4.89
2022-12-27T05:20:26.762Z,-4.88
2022-12-27T05:21:26.797Z,-4.84
2022-12-27T05:22:27.297Z,-4.87
2022-12-27T05:23:26.764Z,-4.85
2022-12-27T05:24:26.851Z,-4.85
2022-12-27T05:25:26.788Z,-4.78
2022-12-27T05:26:28.481Z,-4.82
2022-12-27T05:27:26.824Z,-4.83
2022-12-27T05:28:26.872Z,-4.83
2022-12-27T05:29:26.949Z,-4.86
2022-12-27T05:30:26.906Z,-4.8
2022-12-27T05:31:27.913Z,-4.83
2022-12-27T05:32:26.932Z,-4.82
2022-12-27T05:33:26.965Z,-4.81
2022-12-27T05:34:27.002Z,-4.82
2022-12-27T05:35:27.312Z,-4.81
2022-12-27T05:36:27.338Z,-4.79
2022-12-27T05:37:27.002Z,-4.8
2022-12-27T05:38:27.025Z,-4.8
2022-12-27T05:39:27.094Z,-4.76
2022-12-27T05:40:27.143Z,-4.78
2022-12-27T05:41:27.077Z,-4.78
2022-12-27T05:42:27.075Z,-4.78
2022-12-27T05:43:27.708Z,-4.77
2022-12-27T05:44:27.173Z,-4.75
2022-12-27T05:45:27.495Z,-4.75
2022-12-27T05:46:27.245Z,-4.77
2022-12-27T05:47:27.151Z,-4.75
2022-12-27T05:48:27.946Z,-4.75
2022-12-27T05:49:27.228Z,-4.71
2022-12-27T05:50:27.355Z,-4.71
2022-12-27T05:51:27.220Z,-4.71
2022-12-27T05:52:27.214Z,-4.69
2022-12-27T05:53:27.225Z,-4.65
2022-12-27T05:54:27.280Z,-4.68
2022-12-27T05:55:27.261Z,-4.64
2022-12-27T05:56:27.283Z,-4.6
2022-12-27T05:57:27.571Z,-4.61
2022-12-27T05:58:27.517Z,-4.6
2022-12-27T05:59:27.327Z,-4.6
2022-12-27T06:00:27.352Z,-4.63
2022-12-27T06:01:27.405Z,-4.57
2022-12-27T06:02:27.540Z,-4.59
2022-12-27T06:03:27.515Z,-4.58
2022-12-27T06:04:27.401Z,-4.56
2022-12-27T06:05:27.403Z,-4.53
2022-12-27T06:06:27.399Z,-4.55
2022-12-27T06:07:27.416Z,-4.55
2022-12-27T06:08:27.559Z,-4.53
2022-12-27T06:09:27.464Z,-4.61
2022-12-27T06:10:27.523Z,-4.61
2022-12-27T06:11:27.465Z,-4.57
2022-12-27T06:12:27.874Z,-4.56
2022-12-27T06:13:27.495Z,-4.52
2022-12-27T06:14:27.521Z,-4.52
2022-12-27T06:15:28.307Z,-4.57
2022-12-27T06:16:28.111Z,-4.55
2022-12-27T06:17:28.220Z,-4.55
2022-12-27T06:18:29.368Z,-4.54
2022-12-27T06:19:28.125Z,-4.53
2022-12-27T06:20:28.133Z,-4.49
2022-12-27T06:21:28.207Z,-4.51
2022-12-27T06:22:28.296Z,-4.5
2022-12-27T06:23:28.273Z,-4.49
2022-12-27T06:24:28.185Z,-4.51
2022-12-27T06:25:28.201Z,-4.49
2022-12-27T06:26:29.165Z,-4.48
2022-12-27T06:27:28.206Z,-4.49
2022-12-27T06:28:28.251Z,-4.51
2022-12-27T06:29:28.245Z,-4.46
2022-12-27T06:30:32.886Z,-4.42
2022-12-27T06:31:32.244Z,-4.38
2022-12-27T06:32:32.219Z,-4.38
2022-12-27T06:33:32.194Z,-4.37
2022-12-27T06:34:32.452Z,-4.36
2022-12-27T06:35:32.178Z,-4.35
2022-12-27T06:36:32.319Z,-4.32
2022-12-27T06:37:32.245Z,-4.32
2022-12-27T06:38:32.252Z,-4.31
2022-12-27T06:39:32.271Z,-4.31
2022-12-27T06:40:32.270Z,-4.27
2022-12-27T06:41:32.278Z,-4.26
2022-12-27T06:42:32.329Z,-4.26
2022-12-27T06:43:32.611Z,-4.28
2022-12-27T06:44:32.335Z,-4.26
2022-12-27T06:45:32.575Z,-4.22
2022-12-27T06:46:32.391Z,-4.2
2022-12-27T06:47:32.635Z,-4.2
2022-12-27T06:48:32.401Z,-4.21
2022-12-27T06:49:32.401Z,-4.18
2022-12-27T06:50:32.377Z,-4.2
2022-12-27T06:51:33.419Z,-4.21
2022-12-27T06:52:32.427Z,-4.23
2022-12-27T06:53:32.433Z,-4.17
2022-12-27T06:54:32.427Z,-4.19
2022-12-27T06:55:32.488Z,-4.18
2022-12-27T06:56:32.497Z,-4.19
2022-12-27T06:57:32.529Z,-4.22
2022-12-27T06:58:32.481Z,-4.2
2022-12-27T06:59:32.484Z,-4.24
2022-12-27T07:00:32.559Z,-4.22
2022-12-27T07:01:32.590Z,-4.2
2022-12-27T07:02:32.795Z,-4.23
2022-12-27T07:03:32.940Z,-4.22
2022-12-27T07:04:32.595Z,-4.2
2022-12-27T07:05:34.750Z,-4.19
2022-12-27T07:06:35.213Z,-4.15
2022-12-27T07:07:32.636Z,-4.12
2022-12-27T07:08:32.859Z,-4.15
2022-12-27T07:09:32.621Z,-4.13
2022-12-27T07:10:32.661Z,-4.15
2022-12-27T07:11:33.315Z,-4.14
2022-12-27T07:12:36.666Z,-4.1
2022-12-27T07:13:33.778Z,-4.14
2022-12-27T07:14:33.318Z,-4.09
2022-12-27T07:15:33.315Z,-4.1
2022-12-27T07:16:33.335Z,-4.07
2022-12-27T07:17:36.857Z,-4.04
2022-12-27T07:18:33.682Z,-4.03
2022-12-27T07:19:33.386Z,-4.01
2022-12-27T07:20:33.566Z,-4.01
2022-12-27T07:21:33.427Z,-4.01
2022-12-27T07:22:33.985Z,-4
2022-12-27T07:23:33.526Z,-3.98
2022-12-27T07:24:33.499Z,-3.96
2022-12-27T07:25:33.428Z,-3.99
2022-12-27T07:26:33.460Z,-4.02
2022-12-27T07:27:33.918Z,-4.03
2022-12-27T07:28:33.745Z,-4.02
2022-12-27T07:29:33.515Z,-4.01
2022-12-27T07:30:33.520Z,-4.03
2022-12-27T07:31:33.610Z,-4.01
2022-12-27T07:32:33.545Z,-3.98
2022-12-27T07:33:33.755Z,-3.97
2022-12-27T07:34:33.578Z,-3.93
2022-12-27T07:35:33.625Z,-3.97
2022-12-27T07:36:35.464Z,-3.98
2022-12-27T07:37:33.594Z,-3.97
2022-12-27T07:38:33.632Z,-3.99
2022-12-27T07:39:34.082Z,-3.92
2022-12-27T07:40:35.987Z,-3.88
2022-12-27T07:41:34.315Z,-3.9
2022-12-27T07:42:34.137Z,-3.9
2022-12-27T07:43:34.998Z,-3.89
2022-12-27T07:44:34.166Z,-3.87
2022-12-27T07:45:34.167Z,-3.87
2022-12-27T07:46:34.224Z,-3.9
2022-12-27T07:47:34.257Z,-3.91
2022-12-27T07:48:34.573Z,-3.87
2022-12-27T07:49:34.269Z,-3.84
2022-12-27T07:50:34.251Z,-3.84
2022-12-27T07:51:34.227Z,-3.78
2022-12-27T07:52:34.249Z,-3.8
2022-12-27T07:53:34.801Z,-3.74
2022-12-27T07:54:34.305Z,-3.75
2022-12-27T07:55:34.270Z,-3.78
2022-12-27T07:56:34.307Z,-3.76
2022-12-27T07:57:34.295Z,-3.76
2022-12-27T07:58:38.258Z,-3.72
2022-12-27T07:59:34.530Z,-3.7
2022-12-27T08:00:34.483Z,-3.72
2022-12-27T08:01:35.200Z,-3.7
2022-12-27T08:02:34.545Z,-3.69
2022-12-27T08:03:34.962Z,-3.66
2022-12-27T08:04:35.809Z,-3.65
2022-12-27T08:05:34.578Z,-3.6
2022-12-27T08:06:34.937Z,-3.59
2022-12-27T08:07:35.222Z,-3.57
2022-12-27T08:08:39.316Z,-3.62
2022-12-27T08:09:37.847Z,-3.58
2022-12-27T08:10:35.569Z,-3.54
2022-12-27T08:11:35.562Z,-3.56
2022-12-27T08:12:35.586Z,-3.57
2022-12-27T08:13:35.709Z,-3.54
2022-12-27T08:14:35.614Z,-3.45
2022-12-27T08:15:37.013Z,-3.48
2022-12-27T08:16:35.689Z,-3.48
2022-12-27T08:17:35.643Z,-3.5
2022-12-27T08:18:35.690Z,-3.51
2022-12-27T08:19:35.652Z,-3.52
2022-12-27T08:20:36.032Z,-3.57
2022-12-27T08:21:35.731Z,-3.55
2022-12-27T08:22:35.750Z,-3.48
2022-12-27T08:23:35.731Z,-3.49
2022-12-27T08:24:35.819Z,-3.56
2022-12-27T08:25:35.772Z,-3.55
2022-12-27T08:26:35.831Z,-3.5
2022-12-27T08:27:35.768Z,-3.49
2022-12-27T08:28:35.812Z,-3.41
2022-12-27T08:29:35.988Z,-3.39
2022-12-27T08:30:35.933Z,-3.36
2022-12-27T08:31:35.837Z,-3.31
2022-12-27T08:32:35.855Z,-3.32
2022-12-27T08:33:36.520Z,-3.27
2022-12-27T08:34:35.886Z,-3.23
2022-12-27T08:35:52.827Z,-3.18
2022-12-27T08:36:56.816Z,-3.17
2022-12-27T08:37:43.752Z,-3.16
2022-12-27T08:38:43.851Z,-3.15
2022-12-27T08:39:43.779Z,-3.14
2022-12-27T08:40:44.550Z,-3.07
2022-12-27T08:41:43.880Z,-3.06
2022-12-27T08:42:43.825Z,-3.05
2022-12-27T08:43:43.777Z,-3.06
2022-12-27T08:44:43.860Z,-3.03
2022-12-27T08:45:43.794Z,-3.04
2022-12-27T08:46:44.177Z,-3.01
2022-12-27T08:47:43.821Z,-2.99
2022-12-27T08:48:43.987Z,-2.99
2022-12-27T08:49:43.857Z,-2.99
2022-12-27T08:50:43.862Z,-2.99
2022-12-27T08:51:43.956Z,-2.96
2022-12-27T08:52:43.956Z,-2.98
2022-12-27T08:53:44.130Z,-2.98
2022-12-27T08:54:43.972Z,-3
2022-12-27T08:55:43.936Z,-3
2022-12-27T08:56:43.999Z,-2.98
2022-12-27T08:57:44.011Z,-2.92
2022-12-27T08:58:44.014Z,-2.92
2022-12-27T08:59:44.016Z,-2.89
2022-12-27T09:00:44.052Z,-2.9
2022-12-27T09:01:44.216Z,-2.88
2022-12-27T09:02:44.240Z,-2.83
2022-12-27T09:03:44.077Z,-2.79
2022-12-27T09:04:44.062Z,-2.8
2022-12-27T09:05:44.119Z,-2.76
2022-12-27T09:06:44.108Z,-2.71
2022-12-27T09:07:44.115Z,-2.72
2022-12-27T09:08:44.991Z,-2.72
2022-12-27T09:09:44.110Z,-2.71
2022-12-27T09:10:44.139Z,-2.71
2022-12-27T09:11:45.517Z,-2.72
2022-12-27T09:12:44.149Z,-2.68
2022-12-27T09:13:44.237Z,-2.65
2022-12-27T09:14:44.655Z,-2.65
2022-12-27T09:15:44.951Z,-2.65
2022-12-27T09:16:44.723Z,-2.62
2022-12-27T09:17:44.897Z,-2.6
2022-12-27T09:18:46.896Z,-2.61
2022-12-27T09:19:44.779Z,-2.61
2022-12-27T09:20:44.759Z,-2.62
2022-12-27T09:21:44.748Z,-2.62
2022-12-27T09:22:44.881Z,-2.56
2022-12-27T09:23:45.513Z,-2.58
2022-12-27T09:24:44.810Z,-2.61
2022-12-27T09:25:44.880Z,-2.57
2022-12-27T09:26:44.795Z,-2.55
2022-12-27T09:27:44.997Z,-2.54
2022-12-27T09:28:45.375Z,-2.52
2022-12-27T09:29:48.387Z,-2.5
2022-12-27T09:30:45.481Z,-2.49
2022-12-27T09:31:45.459Z,-2.42
2022-12-27T09:32:45.894Z,-2.37
2022-12-27T09:33:45.467Z,-2.37
2022-12-27T09:34:45.542Z,-2.39
2022-12-27T09:35:45.524Z,-2.38
2022-12-27T09:36:45.574Z,-2.37
2022-12-27T09:37:45.495Z,-2.37
2022-12-27T09:38:46.323Z,-2.35
2022-12-27T09:39:45.552Z,-2.34
2022-12-27T09:40:53.100Z,-2.31
2022-12-27T09:43:10.487Z,-2.34
2022-12-27T09:46:01.785Z,-2.32
2022-12-27T09:48:02.665Z,-2.25
2022-12-27T09:49:01.165Z,-2.25
2022-12-27T09:50:03.196Z,-2.23
2022-12-27T09:51:04.087Z,-2.22
2022-12-27T09:53:05.639Z,-2.2
2022-12-27T09:56:11.708Z,-2.14
2022-12-27T09:57:20.606Z,-2.12
2022-12-27T10:00:30.241Z,-2.09
2022-12-27T10:01:32.573Z,-2.1
2022-12-27T10:02:26.165Z,-2.06
2022-12-27T10:03:26.174Z,-2.06
2022-12-27T10:04:34.672Z,-2.02
2022-12-27T10:10:51.438Z,-1.99
2022-12-27T10:12:56.950Z,-1.87
2022-12-27T10:13:57.515Z,-1.85
2022-12-27T10:21:21.311Z,-1.64
2022-12-27T10:24:19.574Z,-1.54
2022-12-27T10:25:19.148Z,-1.48
2022-12-27T10:26:17.732Z,-1.47
2022-12-27T10:29:23.413Z,-1.29
2022-12-27T10:30:22.173Z,-1.28
2022-12-27T10:31:23.316Z,-1.29
2022-12-27T10:32:22.010Z,-1.26
2022-12-27T10:34:23.895Z,-1.22
2022-12-27T10:35:24.057Z,-1.21
2022-12-27T10:36:25.784Z,-1.12
2022-12-27T10:37:23.980Z,-1.02
2022-12-27T10:38:24.204Z,-1.01
2022-12-27T10:39:27.906Z,-1.04
2022-12-27T10:40:34.035Z,-1.03
2022-12-27T10:42:39.423Z,-1.04
2022-12-27T10:43:39.341Z,-1.04
2022-12-27T10:44:36.103Z,-1.06
2022-12-27T10:45:37.519Z,-1.06
2022-12-27T10:46:36.300Z,-1.06
2022-12-27T10:47:36.098Z,-1.02
2022-12-27T10:49:10.912Z,-1.01
2022-12-27T10:49:38.407Z,-0.99
2022-12-27T10:50:37.921Z,-0.96
2022-12-27T10:51:39.130Z,-0.97
2022-12-27T10:52:37.753Z,-0.95
2022-12-27T10:54:51.798Z,-0.86
2022-12-27T10:55:43.642Z,-0.79
2022-12-27T10:56:43.524Z,-0.78
2022-12-27T10:57:43.574Z,-0.77
2022-12-27T10:58:51.531Z,-0.76
2022-12-27T10:59:44.932Z,-0.78
2022-12-27T11:00:52.814Z,-0.65
2022-12-27T11:02:55.368Z,-0.55
2022-12-27T11:04:58.853Z,-0.61
2022-12-27T11:07:58.569Z,-0.62
2022-12-27T11:08:58.615Z,-0.63
2022-12-27T11:13:06.977Z,-0.6
2022-12-27T11:14:10.467Z,-0.53
2022-12-27T11:16:19.967Z,-0.57
2022-12-27T11:17:13.996Z,-0.58
2022-12-27T11:18:20.725Z,-0.65
2022-12-27T11:19:23.435Z,-0.58
2022-12-27T11:20:29.058Z,-0.59
2022-12-27T11:21:25.644Z,-0.61
2022-12-27T11:22:19.889Z,-0.57
2022-12-27T11:23:21.106Z,-0.58
2022-12-27T11:24:20.152Z,-0.53
2022-12-27T11:25:19.572Z,-0.54
2022-12-27T11:26:21.136Z,-0.57
2022-12-27T11:27:24.099Z,-0.54
2022-12-27T11:29:27.073Z,-0.5
2022-12-27T11:30:39.104Z,-0.55
2022-12-27T11:31:36.983Z,-0.51
2022-12-27T11:32:28.948Z,-0.51
2022-12-27T11:33:37.357Z,-0.48
2022-12-27T11:34:33.534Z,-0.57
2022-12-27T11:35:30.915Z,-0.58
2022-12-27T11:36:38.732Z,-0.6
2022-12-27T11:37:30.631Z,-0.59
2022-12-27T11:38:32.042Z,-0.59
2022-12-27T11:39:37.343Z,-0.6
2022-12-27T11:40:34.297Z,-0.61
2022-12-27T11:45:48.986Z,-0.55
2022-12-27T11:48:55.282Z,-0.56
2022-12-27T11:49:54.737Z,-0.55
2022-12-27T12:11:54.914Z,-0.33
2022-12-27T12:19:10.819Z,-0.32
2022-12-27T12:26:22.149Z,-0.28
2022-12-27T12:52:30.946Z,-0.39
2022-12-27T12:57:40.028Z,-0.46
2022-12-27T13:06:07.985Z,-0.63
2022-12-27T13:25:58.562Z,-0.41
2022-12-27T13:41:35.148Z,-0.33
2022-12-27T13:47:56.782Z,-0.45
2022-12-27T13:52:06.215Z,-0.4
2022-12-27T13:54:08.282Z,-0.36
2022-12-27T14:00:21.035Z,-0.39
2022-12-27T14:13:42.291Z,-0.32
2022-12-27T14:14:42.558Z,-0.32
2022-12-27T14:23:14.739Z,-0.3
2022-12-27T14:46:19.381Z,-0.38
2022-12-27T14:58:53.912Z,-0.35
2022-12-27T14:59:57.192Z,-0.37
2022-12-27T15:01:00.432Z,-0.36
2022-12-27T15:02:06.529Z,-0.37
2022-12-27T15:03:05.825Z,-0.31
2022-12-27T15:06:12.897Z,-0.32
2022-12-27T15:11:30.147Z,-0.33
2022-12-27T15:22:52.497Z,-0.27
2022-12-27T15:30:18.645Z,-0.23
2022-12-27T15:31:15.340Z,-0.27
2022-12-27T15:38:49.587Z,-0.19
2022-12-27T15:42:50.274Z,-0.21
2022-12-27T15:43:54.677Z,-0.19
2022-12-27T15:44:52.735Z,-0.21
2022-12-27T15:46:03.149Z,-0.19
2022-12-27T15:48:07.898Z,-0.17
2022-12-27T15:58:22.215Z,-0.16
2022-12-27T16:01:27.442Z,-0.17
2022-12-27T16:03:35.444Z,-0.14
2022-12-27T16:04:39.762Z,-0.15
2022-12-27T16:05:41.647Z,-0.15
2022-12-27T16:06:47.555Z,-0.13
2022-12-27T16:07:45.566Z,-0.11
2022-12-27T16:08:42.048Z,-0.08
2022-12-27T16:09:42.158Z,-0.08
2022-12-27T16:10:50.608Z,-0.13
2022-12-27T16:12:43.325Z,-0.16
2022-12-27T16:14:46.208Z,-0.07
2022-12-27T16:15:50.589Z,-0.07
2022-12-27T16:21:57.542Z,-0.04
2022-12-27T16:22:59.681Z,-0.07
2022-12-27T16:24:03.304Z,-0.05
2022-12-27T16:25:13.967Z,-0.09
2022-12-27T16:26:02.971Z,-0.05
2022-12-27T16:27:03.721Z,0
2022-12-27T16:30:02.996Z,-0.06
2022-12-27T16:31:05.825Z,-0.02
2022-12-27T16:34:11.391Z,-0.08
2022-12-27T16:35:13.510Z,-0.04
2022-12-27T16:36:18.840Z,-0.01
2022-12-27T16:37:20.020Z,-0.06
2022-12-27T16:38:20.558Z,-0.06
2022-12-27T16:39:23.010Z,-0.07
2022-12-27T16:42:21.695Z,-0.01
2022-12-27T16:50:45.097Z,-0.08
2022-12-27T16:56:45.842Z,-0.11
2022-12-27T16:57:47.672Z,-0.08
2022-12-27T16:58:45.872Z,-0.04
2022-12-27T17:00:51.837Z,-0.09
2022-12-27T17:01:59.602Z,-0.06
2022-12-27T17:02:51.111Z,-0.04
2022-12-27T17:03:51.639Z,-0.06
2022-12-27T17:04:53.083Z,-0.07
2022-12-27T17:06:29.964Z,-0.08
2022-12-27T17:06:54.725Z,-0.11
2022-12-27T17:09:56.398Z,-0.04
2022-12-27T17:12:04.997Z,-0.12
2022-12-27T17:15:11.716Z,-0.04
2022-12-27T17:17:16.535Z,-0.05
2022-12-27T17:20:17.658Z,0
2022-12-27T17:22:18.043Z,-0.06
2022-12-27T17:23:17.393Z,-0.11
2022-12-27T17:24:19.081Z,-0.06
2022-12-27T17:25:18.520Z,-0.11
2022-12-27T17:28:28.693Z,-0.11
2022-12-27T17:30:42.302Z,-0.09
2022-12-27T17:32:41.429Z,-0.05
2022-12-27T17:36:48.484Z,-0.09
2022-12-27T17:49:15.214Z,-0.03
2022-12-27T17:50:16.027Z,-0.02
2022-12-27T17:51:19.861Z,-0.06
2022-12-27T17:52:17.479Z,-0.08
2022-12-27T17:53:17.628Z,-0.02
2022-12-27T17:54:23.929Z,0.02
2022-12-27T17:55:24.577Z,0.02
2022-12-27T17:56:21.916Z,0.04
2022-12-27T17:57:20.982Z,0
2022-12-27T17:58:20.830Z,-0.01
2022-12-27T17:59:24.488Z,-0.06
2022-12-27T18:00:22.248Z,-0.04
2022-12-27T18:01:21.053Z,-0.03
2022-12-27T18:02:26.067Z,-0.04
2022-12-27T18:03:23.476Z,0
2022-12-27T18:05:33.163Z,-0.03
2022-12-27T18:06:29.425Z,-0.04
2022-12-27T18:07:30.599Z,-0.02
2022-12-27T18:08:30.372Z,-0.09
2022-12-27T18:10:31.247Z,-0.06
2022-12-27T18:11:31.443Z,-0.06
2022-12-27T18:12:34.450Z,-0.07
2022-12-27T18:14:33.604Z,-0.08
2022-12-27T18:15:33.712Z,-0.08
2022-12-27T18:16:36.088Z,-0.09
2022-12-27T18:18:35.863Z,-0.08
2022-12-27T18:19:35.782Z,-0.07
2022-12-27T18:20:37.623Z,-0.12
2022-12-27T18:21:35.843Z,-0.11
2022-12-27T18:22:35.887Z,-0.1
2022-12-27T18:23:40.274Z,-0.1
2022-12-27T18:24:39.605Z,-0.09
2022-12-27T18:25:37.782Z,-0.09
2022-12-27T18:26:37.692Z,-0.06
2022-12-27T18:27:36.550Z,-0.03
2022-12-27T18:28:36.654Z,-0.02
2022-12-27T18:29:36.690Z,-0.04
2022-12-27T18:30:39.219Z,-0.03
2022-12-27T18:32:37.842Z,0
2022-12-27T18:34:52.000Z,-0.03
2022-12-27T18:35:46.535Z,-0.03
2022-12-27T18:36:51.559Z,-0.04
2022-12-27T18:37:47.818Z,-0.07
2022-12-27T18:38:52.300Z,-0.04
2022-12-27T18:39:54.284Z,-0.02
2022-12-27T18:40:58.072Z,-0.03
2022-12-27T18:41:55.589Z,-0.01
2022-12-27T18:42:55.475Z,0
2022-12-27T18:44:00.209Z,-0.03
2022-12-27T18:44:58.742Z,-0.06
2022-12-27T18:45:56.978Z,-0.08
2022-12-27T18:46:58.184Z,-0.08
2022-12-27T18:47:57.923Z,-0.08
2022-12-27T18:48:56.802Z,-0.09
2022-12-27T18:50:01.075Z,-0.1
2022-12-27T18:50:57.362Z,-0.09
2022-12-27T18:51:57.836Z,-0.12
2022-12-27T18:53:04.773Z,-0.16
2022-12-27T18:54:01.550Z,-0.16
2022-12-27T18:55:06.007Z,-0.13
2022-12-27T18:56:07.039Z,-0.14
2022-12-27T18:57:04.879Z,-0.16
2022-12-27T18:59:21.599Z,-0.21
2022-12-27T19:03:18.415Z,-0.18
2022-12-27T19:04:26.888Z,-0.14
2022-12-27T19:05:27.386Z,-0.19
2022-12-27T19:06:19.184Z,-0.22
2022-12-27T19:07:19.085Z,-0.2
2022-12-27T19:08:19.077Z,-0.17
2022-12-27T19:09:20.520Z,-0.15
2022-12-27T19:10:20.537Z,-0.16
2022-12-27T19:11:24.455Z,-0.17
2022-12-27T19:12:23.591Z,-0.15
2022-12-27T19:13:23.063Z,-0.09
2022-12-27T19:14:21.844Z,-0.1
2022-12-27T19:16:27.566Z,-0.11
2022-12-27T19:17:25.850Z,-0.12
2022-12-27T19:18:29.096Z,-0.12
2022-12-27T19:19:29.624Z,-0.07